createdAt,value
2023-03-28T00:01:51.395Z,83.48
2023-03-28T00:04:23.145Z,83.22
2023-03-28T00:06:52.289Z,82.95
2023-03-28T00:09:20.936Z,80.72
2023-03-28T00:11:48.670Z,79.63
2023-03-28T00:14:16.674Z,80.34
2023-03-28T00:16:47.506Z,80.48
2023-03-28T00:19:19.045Z,78.64
2023-03-28T00:21:49.689Z,76.95
2023-03-28T00:24:21.672Z,76.30
2023-03-28T00:26:54.732Z,76.48
2023-03-28T00:29:26.327Z,77.06
2023-03-28T00:31:54.442Z,76.33
2023-03-28T00:34:22.366Z,77.08
2023-03-28T00:36:51.028Z,77.45
2023-03-28T00:39:18.854Z,77.95
2023-03-28T00:41:46.976Z,77.05
2023-03-28T00:44:39.614Z,77.62
2023-03-28T00:47:20.862Z,76.98
2023-03-28T00:49:50.481Z,77.07
2023-03-28T00:52:19.998Z,76.37
2023-03-28T00:54:48.448Z,77.53
2023-03-28T00:57:19.533Z,77.51
2023-03-28T00:59:47.810Z,77.98
2023-03-28T01:02:15.741Z,78.46
2023-03-28T01:05:01.186Z,78.28
2023-03-28T01:07:35.654Z,78.63
2023-03-28T01:10:05.396Z,78.63
2023-03-28T01:12:34.687Z,77.79
2023-03-28T01:15:03.582Z,77.82
2023-03-28T01:18:11.701Z,78.76
2023-03-28T01:21:04.155Z,77.74
2023-03-28T01:24:11.494Z,78.13
2023-03-28T01:26:54.239Z,77.92
2023-03-28T01:29:46.829Z,78.31
2023-03-28T01:32:50.789Z,77.51
2023-03-28T01:35:44.997Z,79.14
2023-03-28T01:38:31.365Z,79.13
2023-03-28T01:41:35.610Z,77.74
2023-03-28T01:44:17.810Z,76.51
2023-03-28T01:47:15.959Z,76.90
2023-03-28T01:50:26.730Z,78.31
2023-03-28T01:52:59.892Z,78.97
2023-03-28T01:55:52.387Z,79.43
2023-03-28T01:59:00.985Z,78.24
2023-03-28T02:02:14.524Z,78.78
2023-03-28T02:04:46.651Z,78.54
2023-03-28T02:07:18.809Z,77.49
2023-03-28T02:10:08.790Z,78.26
2023-03-28T02:13:12.508Z,77.85
2023-03-28T02:16:02.982Z,76.69
2023-03-28T02:18:53.349Z,76.28
2023-03-28T02:21:43.727Z,77.39
2023-03-28T02:24:30.209Z,77.78
2023-03-28T02:27:22.897Z,77.52
2023-03-28T02:30:11.564Z,77.48
2023-03-28T02:32:44.276Z,75.96
2023-03-28T02:35:12.476Z,77.64
2023-03-28T02:38:11.513Z,77.09
2023-03-28T02:41:04.274Z,75.73
2023-03-28T02:43:46.262Z,77.39
2023-03-28T02:46:30.705Z,77.17
2023-03-28T02:49:19.068Z,74.69
2023-03-28T02:52:09.570Z,74.52
2023-03-28T02:57:01.516Z,73.69
2023-03-28T02:59:49.741Z,75.07
2023-03-28T03:02:20.700Z,75.03
2023-03-28T03:04:57.882Z,75.52
2023-03-28T03:07:26.279Z,74.26
2023-03-28T03:09:54.397Z,75.40
2023-03-28T03:12:23.516Z,72.79
2023-03-28T03:15:01.311Z,75.02
2023-03-28T03:17:48.114Z,72.47
2023-03-28T03:20:19.461Z,73.28
2023-03-28T03:22:47.601Z,72.20
2023-03-28T03:25:16.347Z,71.83
2023-03-28T03:27:54.520Z,72.63
2023-03-28T03:30:23.112Z,71.04
2023-03-28T03:33:16.987Z,71.04
2023-03-28T03:35:48.480Z,70.14
2023-03-28T03:38:18.545Z,71.07
2023-03-28T03:40:46.582Z,69.97
2023-03-28T03:43:15.693Z,70.61
2023-03-28T03:45:48.991Z,71.67
2023-03-28T03:48:17.018Z,70.37
2023-03-28T03:50:45.391Z,70.63
2023-03-28T03:53:16.888Z,71.53
2023-03-28T03:55:54.270Z,70.60
2023-03-28T03:58:22.469Z,71.66
2023-03-28T04:00:52.271Z,72.56
2023-03-28T04:03:38.961Z,70.81
2023-03-28T04:06:07.148Z,71.22
2023-03-28T04:08:36.203Z,70.09
2023-03-28T04:11:05.124Z,71.46
2023-03-28T04:13:38.828Z,70.62
2023-03-28T04:16:08.389Z,71.44
2023-03-28T04:18:59.899Z,70.23
2023-03-28T04:21:30.088Z,70.46
2023-03-28T04:24:02.200Z,69.40
2023-03-28T04:26:46.064Z,69.86
2023-03-28T04:29:14.230Z,68.81
2023-03-28T04:31:51.086Z,68.67
2023-03-28T04:34:51.592Z,69.36
2023-03-28T04:37:20.658Z,67.67
2023-03-28T04:39:54.468Z,68.55
2023-03-28T04:42:57.764Z,67.69
2023-03-28T04:45:35.223Z,68.55
2023-03-28T04:48:13.195Z,66.55
2023-03-28T04:50:41.345Z,65.65
2023-03-28T04:53:09.627Z,65.86
2023-03-28T04:55:50.756Z,66.13
2023-03-28T04:58:24.275Z,66.35
2023-03-28T05:00:54.246Z,65.92
2023-03-28T05:03:57.300Z,67.17
2023-03-28T05:06:26.244Z,67.07
2023-03-28T05:08:54.487Z,65.47
2023-03-28T05:11:27.184Z,66.06
2023-03-28T05:13:55.298Z,68.19
2023-03-28T05:16:34.486Z,67.99
2023-03-28T05:19:28.295Z,67.03
2023-03-28T05:22:13.257Z,68.14
2023-03-28T05:24:43.635Z,68.04
2023-03-28T05:27:18.213Z,67.47
2023-03-28T05:29:46.397Z,68.47
2023-03-28T05:32:14.693Z,66.64
2023-03-28T05:34:42.909Z,68.11
2023-03-28T05:37:12.166Z,67.69
2023-03-28T05:39:46.365Z,66.72
2023-03-28T05:42:14.368Z,66.90
2023-03-28T05:44:42.344Z,66.82
2023-03-28T05:47:25.778Z,67.56
2023-03-28T05:49:55.137Z,69.02
2023-03-28T05:52:23.362Z,66.58
2023-03-28T05:54:52.573Z,67.21
2023-03-28T05:57:22.841Z,68.41
2023-03-28T05:59:51.823Z,66.79
2023-03-28T06:02:23.947Z,67.87
2023-03-28T06:04:58.164Z,69.44
2023-03-28T06:07:39.372Z,68.95
2023-03-28T06:10:13.870Z,69.13
2023-03-28T06:12:46.467Z,69.42
2023-03-28T06:15:14.454Z,69.19
2023-03-28T06:17:46.450Z,69.79
2023-03-28T06:20:15.838Z,69.26
2023-03-28T06:22:43.910Z,70.67
2023-03-28T06:25:12.492Z,70.84
2023-03-28T06:27:40.475Z,70.43
2023-03-28T06:30:09.278Z,72.14
2023-03-28T06:32:44.373Z,70.75
2023-03-28T06:35:15.085Z,73.40
2023-03-28T06:37:43.197Z,73.17
2023-03-28T06:40:12.149Z,72.75
2023-03-28T06:42:40.488Z,72.31
2023-03-28T06:45:24.190Z,73.01
2023-03-28T06:47:58.976Z,71.96
2023-03-28T06:50:50.376Z,71.28
2023-03-28T06:53:21.151Z,69.96
2023-03-28T06:55:51.352Z,69.87
2023-03-28T06:58:21.428Z,68.93
2023-03-28T07:01:04.004Z,67.80
2023-03-28T07:03:32.310Z,68.50
2023-03-28T07:06:06.283Z,68.48
2023-03-28T07:08:34.605Z,66.24
2023-03-28T07:11:03.235Z,64.66
2023-03-28T07:13:32.860Z,64.79
2023-03-28T07:16:09.031Z,62.77
2023-03-28T07:18:37.470Z,61.92
2023-03-28T07:21:10.715Z,63.94
2023-03-28T07:23:41.992Z,62.57
2023-03-28T07:26:13.548Z,61.65
2023-03-28T07:28:41.917Z,61.55
2023-03-28T07:31:10.343Z,59.55
2023-03-28T07:33:39.509Z,59.56
2023-03-28T07:36:15.247Z,57.53
2023-03-28T07:38:48.389Z,57.86
2023-03-28T07:41:18.034Z,55.61
2023-03-28T07:43:46.103Z,54.14
2023-03-28T07:46:16.365Z,52.19
2023-03-28T07:48:46.777Z,49.89
2023-03-28T07:51:16.944Z,49.33
2023-03-28T07:53:45.414Z,52.11
2023-03-28T07:56:13.593Z,53.33
2023-03-28T07:59:17.719Z,54.36
2023-03-28T08:01:49.348Z,53.52
2023-03-28T08:04:19.710Z,54.85
2023-03-28T08:07:17.221Z,56.06
2023-03-28T08:09:47.553Z,57.53
2023-03-28T08:12:21.676Z,57.36
2023-03-28T08:14:50.289Z,57.15
2023-03-28T08:17:23.167Z,58.34
2023-03-28T08:19:53.300Z,58.01
2023-03-28T08:22:31.081Z,58.54
2023-03-28T08:25:11.677Z,59.44
2023-03-28T08:27:42.132Z,58.86
2023-03-28T08:30:13.782Z,59.68
2023-03-28T08:32:57.356Z,60.38
2023-03-28T08:35:25.528Z,62.90
2023-03-28T08:37:57.186Z,60.90
2023-03-28T08:40:28.422Z,60.32
2023-03-28T08:43:37.129Z,59.75
2023-03-28T08:46:05.418Z,59.44
2023-03-28T08:48:47.693Z,58.11
2023-03-28T08:51:32.819Z,57.90
2023-03-28T08:54:12.000Z,57.54
2023-03-28T08:56:47.499Z,55.06
2023-03-28T08:59:19.490Z,56.51
2023-03-28T09:01:47.666Z,55.83
2023-03-28T09:04:32.198Z,56.01
2023-03-28T09:07:32.889Z,55.55
2023-03-28T09:10:31.149Z,53.10
2023-03-28T09:13:21.146Z,53.08
2023-03-28T09:16:12.717Z,51.91
2023-03-28T09:19:11.071Z,51.34
2023-03-28T09:22:04.991Z,52.29
2023-03-28T09:24:57.023Z,51.31
2023-03-28T09:27:40.406Z,51.65
2023-03-28T09:30:15.812Z,50.04
2023-03-28T09:32:44.566Z,49.92
2023-03-28T09:35:19.323Z,50.20
2023-03-28T09:37:51.055Z,49.79
2023-03-28T09:40:26.285Z,50.96
2023-03-28T09:43:17.164Z,49.47
2023-03-28T09:46:11.702Z,49.19
2023-03-28T09:48:43.100Z,47.73
2023-03-28T09:51:19.823Z,46.81
2023-03-28T09:53:48.510Z,46.59
2023-03-28T09:56:40.131Z,45.66
2023-03-28T09:59:41.137Z,47.03
2023-03-28T10:02:40.323Z,48.00
2023-03-28T10:05:44.296Z,48.61
2023-03-28T10:08:47.179Z,50.37
2023-03-28T10:11:27.654Z,52.81
2023-03-28T10:13:57.534Z,54.28
2023-03-28T10:16:31.195Z,53.41
2023-03-28T10:19:33.757Z,52.73
2023-03-28T10:22:13.146Z,52.25
2023-03-28T10:24:48.336Z,49.81
2023-03-28T10:27:24.710Z,49.47
2023-03-28T10:29:56.736Z,47.20
2023-03-28T10:32:31.103Z,45.30
2023-03-28T10:35:26.210Z,45.95
2023-03-28T10:38:20.374Z,47.24
2023-03-28T10:41:26.199Z,46.30
2023-03-28T10:44:41.569Z,45.48
2023-03-28T10:47:18.380Z,42.91
2023-03-28T10:49:55.568Z,43.36
2023-03-28T10:52:45.033Z,44.58
2023-03-28T10:55:23.967Z,45.55
2023-03-28T10:58:16.339Z,44.61
2023-03-28T11:01:01.979Z,43.80
2023-03-28T11:04:00.613Z,42.84
2023-03-28T11:06:41.603Z,45.75
2023-03-28T11:09:31.925Z,46.13
2023-03-28T11:12:54.310Z,47.28
2023-03-28T11:15:40.292Z,46.65
2023-03-28T11:18:45.267Z,46.89
2023-03-28T11:21:55.866Z,45.33
2023-03-28T11:24:42.666Z,45.93
2023-03-28T11:27:48.670Z,45.16
2023-03-28T11:30:35.321Z,43.94
2023-03-28T11:34:03.300Z,44.43
2023-03-28T11:36:43.144Z,42.84
2023-03-28T11:39:20.286Z,42.90
2023-03-28T11:41:50.482Z,45.18
2023-03-28T11:44:33.706Z,44.04
2023-03-28T11:47:09.121Z,43.83
2023-03-28T11:49:47.313Z,44.69
2023-03-28T11:52:46.752Z,44.10
2023-03-28T11:55:25.195Z,43.90
2023-03-28T11:58:05.618Z,46.12
2023-03-28T12:00:42.537Z,44.24
2023-03-28T12:03:18.341Z,42.96
2023-03-28T12:06:05.270Z,42.42
2023-03-28T12:09:12.962Z,42.72
2023-03-28T12:12:15.835Z,40.40
2023-03-28T12:15:07.477Z,40.88
2023-03-28T12:18:02.991Z,42.14
2023-03-28T12:20:33.105Z,40.28
2023-03-28T12:23:24.047Z,40.64
2023-03-28T12:26:43.004Z,41.81
2023-03-28T12:29:38.832Z,42.85
2023-03-28T12:32:16.892Z,42.52
2023-03-28T12:34:56.004Z,42.67
2023-03-28T12:37:41.632Z,41.74
2023-03-28T12:40:13.716Z,42.65
2023-03-28T12:42:46.054Z,41.80
2023-03-28T12:45:22.337Z,42.29
2023-03-28T12:47:54.985Z,41.75
2023-03-28T12:50:34.257Z,41.83
2023-03-28T12:53:02.592Z,41.47
2023-03-28T12:55:48.151Z,41.45
2023-03-28T12:58:36.628Z,43.15
2023-03-28T13:01:48.135Z,43.11
2023-03-28T13:04:44.309Z,41.88
2023-03-28T13:07:36.459Z,44.12
2023-03-28T13:10:19.308Z,41.93
2023-03-28T13:13:30.086Z,42.15
2023-03-28T13:16:13.607Z,42.68
2023-03-28T13:19:12.306Z,43.42
2023-03-28T13:22:01.154Z,43.48
2023-03-28T13:24:34.637Z,43.20
2023-03-28T13:27:13.164Z,42.28
2023-03-28T13:29:52.230Z,42.30
2023-03-28T13:32:24.950Z,40.36
2023-03-28T13:35:00.272Z,39.87
2023-03-28T13:37:43.326Z,39.58
2023-03-28T13:40:51.387Z,38.57
2023-03-28T13:43:50.001Z,38.96
2023-03-28T13:46:38.507Z,38.00
2023-03-28T13:49:19.766Z,39.19
2023-03-28T13:52:00.070Z,38.53
2023-03-28T13:54:29.442Z,37.19
2023-03-28T13:57:05.446Z,37.62
2023-03-28T13:59:38.024Z,37.25
2023-03-28T14:02:21.608Z,37.78
2023-03-28T14:04:55.907Z,38.32
2023-03-28T14:07:26.354Z,36.59
2023-03-28T14:09:56.464Z,37.34
2023-03-28T14:12:29.589Z,38.01
2023-03-28T14:15:00.821Z,39.46
2023-03-28T14:17:33.975Z,39.33
2023-03-28T14:20:06.064Z,37.29
2023-03-28T14:22:52.876Z,37.56
2023-03-28T14:25:28.215Z,36.21
2023-03-28T14:27:57.700Z,35.89
2023-03-28T14:30:32.394Z,36.15
2023-03-28T14:33:21.689Z,36.33
2023-03-28T14:35:59.219Z,37.03
2023-03-28T14:38:31.327Z,37.36
2023-03-28T14:41:32.034Z,37.29
2023-03-28T14:44:00.419Z,36.86
2023-03-28T14:46:33.125Z,38.21
2023-03-28T14:49:04.667Z,37.43
2023-03-28T14:51:48.775Z,39.17
2023-03-28T14:54:25.180Z,39.28
2023-03-28T14:56:55.618Z,39.40
2023-03-28T14:59:32.604Z,39.05
2023-03-28T15:02:04.894Z,39.53
2023-03-28T15:04:34.320Z,38.35
2023-03-28T15:07:03.065Z,39.98
2023-03-28T15:09:33.817Z,40.00
2023-03-28T15:12:09.352Z,41.50
2023-03-28T15:14:45.754Z,40.19
2023-03-28T15:17:20.353Z,40.61
2023-03-28T15:19:58.842Z,40.64
2023-03-28T15:22:30.388Z,40.53
2023-03-28T15:24:59.797Z,40.33
2023-03-28T15:27:38.764Z,40.39
2023-03-28T15:30:15.255Z,40.91
2023-03-28T15:32:43.991Z,41.05
2023-03-28T15:35:35.777Z,41.45
2023-03-28T15:38:19.531Z,39.78
2023-03-28T15:40:53.190Z,40.73
2023-03-28T15:43:27.600Z,39.18
2023-03-28T15:46:11.716Z,40.20
2023-03-28T15:48:43.284Z,40.40
2023-03-28T15:51:17.851Z,41.24
2023-03-28T15:53:48.530Z,41.05
2023-03-28T15:56:32.831Z,42.86
2023-03-28T15:59:14.966Z,43.05
2023-03-28T16:01:43.540Z,43.65
2023-03-28T16:04:24.171Z,44.22
2023-03-28T16:07:05.536Z,45.87
2023-03-28T16:09:35.446Z,45.84
2023-03-28T16:12:04.605Z,46.69
2023-03-28T16:14:50.064Z,47.80
2023-03-28T16:17:42.364Z,48.11
2023-03-28T16:20:25.707Z,49.07
2023-03-28T16:22:57.366Z,50.04
2023-03-28T16:25:27.879Z,50.30
2023-03-28T16:27:57.022Z,50.73
2023-03-28T16:30:31.208Z,51.01
2023-03-28T16:33:00.151Z,51.32
2023-03-28T16:35:29.089Z,50.29
2023-03-28T16:37:57.832Z,51.35
2023-03-28T16:40:26.547Z,51.63
2023-03-28T16:42:55.573Z,52.02
2023-03-28T16:45:24.169Z,51.54
2023-03-28T16:47:53.060Z,52.64
2023-03-28T16:50:21.453Z,51.75
2023-03-28T16:52:50.173Z,52.66
2023-03-28T16:55:19.554Z,52.57
2023-03-28T16:57:48.090Z,52.33
2023-03-28T17:00:18.797Z,51.56
2023-03-28T17:02:48.286Z,53.00
2023-03-28T17:05:17.299Z,52.71
2023-03-28T17:07:45.886Z,52.06
2023-03-28T17:10:14.340Z,52.90
2023-03-28T17:12:42.903Z,53.13
2023-03-28T17:15:11.676Z,54.14
2023-03-28T17:17:40.215Z,54.05
2023-03-28T17:20:09.566Z,55.11
2023-03-28T17:22:38.440Z,56.11
2023-03-28T17:25:07.498Z,56.16
2023-03-28T17:27:35.917Z,57.45
2023-03-28T17:30:05.728Z,58.41
2023-03-28T17:32:34.751Z,58.12
2023-03-28T17:35:03.282Z,58.52
2023-03-28T17:37:32.038Z,58.76
2023-03-28T17:40:00.469Z,59.08
2023-03-28T17:42:29.171Z,58.53
2023-03-28T17:44:58.453Z,58.58
2023-03-28T17:47:27.349Z,58.47
2023-03-28T17:49:57.469Z,58.24
2023-03-28T17:52:27.480Z,58.53
2023-03-28T17:54:58.086Z,58.94
2023-03-28T17:57:26.995Z,58.84
2023-03-28T17:59:55.364Z,59.00
2023-03-28T18:02:24.478Z,58.79
2023-03-28T18:05:03.458Z,59.50
2023-03-28T18:07:35.370Z,58.94
2023-03-28T18:10:09.108Z,59.61
2023-03-28T18:12:37.973Z,58.85
2023-03-28T18:15:08.564Z,59.86
2023-03-28T18:17:37.691Z,60.38
2023-03-28T18:20:06.892Z,59.73
2023-03-28T18:22:37.046Z,59.60
2023-03-28T18:25:07.031Z,59.62
2023-03-28T18:27:35.586Z,60.13
2023-03-28T18:30:08.562Z,60.74
2023-03-28T18:32:37.316Z,60.19
2023-03-28T18:35:07.507Z,60.48
2023-03-28T18:37:36.917Z,60.62
2023-03-28T18:40:08.006Z,60.80
2023-03-28T18:42:36.985Z,61.15
2023-03-28T18:45:06.685Z,60.57
2023-03-28T18:47:37.828Z,61.14
2023-03-28T18:50:07.847Z,61.29
2023-03-28T18:52:37.862Z,61.05
2023-03-28T18:55:07.062Z,61.23
2023-03-28T18:57:35.764Z,60.90
2023-03-28T19:00:15.846Z,61.15
2023-03-28T19:02:48.756Z,60.65
2023-03-28T19:05:18.033Z,60.24
2023-03-28T19:07:46.568Z,60.42
2023-03-28T19:10:15.207Z,59.87
2023-03-28T19:12:43.577Z,60.04
2023-03-28T19:15:12.416Z,60.51
2023-03-28T19:17:40.788Z,61.20
2023-03-28T19:20:13.769Z,61.17
2023-03-28T19:22:43.197Z,61.58
2023-03-28T19:25:11.525Z,62.42
2023-03-28T19:27:39.856Z,61.92
2023-03-28T19:30:09.970Z,62.16
2023-03-28T19:32:38.865Z,62.21
2023-03-28T19:35:07.828Z,62.19
2023-03-28T19:37:36.588Z,62.13
2023-03-28T19:40:11.394Z,62.31
2023-03-28T19:42:39.922Z,61.47
2023-03-28T19:45:08.799Z,61.29
2023-03-28T19:47:37.395Z,61.21
2023-03-28T19:50:07.836Z,61.56
2023-03-28T19:52:36.040Z,61.08
2023-03-28T19:55:05.017Z,60.05
2023-03-28T19:57:33.335Z,60.23
2023-03-28T20:00:01.635Z,60.40
2023-03-28T20:02:29.899Z,60.11
2023-03-28T20:04:58.064Z,60.42
2023-03-28T20:07:26.750Z,61.42
2023-03-28T20:09:55.092Z,61.25
2023-03-28T20:12:23.217Z,60.60
2023-03-28T20:14:51.222Z,60.85
2023-03-28T20:17:19.123Z,61.56
2023-03-28T20:19:47.092Z,61.14
2023-03-28T20:22:15.211Z,61.46
2023-03-28T20:24:43.138Z,60.84
2023-03-28T20:27:13.774Z,61.68
2023-03-28T20:29:42.723Z,61.62
2023-03-28T20:32:10.834Z,61.85
2023-03-28T20:34:38.811Z,62.77
2023-03-28T20:37:06.757Z,62.32
2023-03-28T20:39:37.210Z,62.16
2023-03-28T20:42:05.928Z,61.63
2023-03-28T20:44:43.363Z,61.92
2023-03-28T20:47:12.775Z,61.36
2023-03-28T20:49:46.581Z,60.55
2023-03-28T20:52:15.696Z,61.01
2023-03-28T20:54:43.769Z,60.94
2023-03-28T20:57:12.251Z,60.48
2023-03-28T20:59:40.878Z,60.74
2023-03-28T21:02:11.068Z,60.67
2023-03-28T21:04:39.501Z,60.15
2023-03-28T21:07:07.425Z,60.11
2023-03-28T21:09:35.428Z,60.10
2023-03-28T21:12:03.375Z,60.08
2023-03-28T21:14:31.555Z,60.28
2023-03-28T21:17:00.181Z,60.29
2023-03-28T21:19:28.226Z,60.42
2023-03-28T21:21:59.337Z,60.72
2023-03-28T21:24:27.483Z,60.50
2023-03-28T21:26:55.411Z,60.16
2023-03-28T21:29:24.812Z,60.29
2023-03-28T21:31:52.679Z,59.96
2023-03-28T21:34:31.855Z,60.18
2023-03-28T21:37:01.385Z,60.26
2023-03-28T21:39:29.686Z,60.64
2023-03-28T21:41:57.913Z,60.26
2023-03-28T21:44:26.206Z,60.72
2023-03-28T21:46:54.230Z,60.79
2023-03-28T21:49:23.473Z,60.47
2023-03-28T21:51:52.922Z,62.72
2023-03-28T21:54:20.814Z,62.69
2023-03-28T21:56:48.847Z,62.65
2023-03-28T21:59:16.896Z,62.85
2023-03-28T22:01:44.879Z,62.80
2023-03-28T22:04:13.115Z,62.81
2023-03-28T22:06:41.315Z,62.95
2023-03-28T22:09:09.689Z,62.96
2023-03-28T22:11:37.982Z,63.76
2023-03-28T22:14:06.446Z,63.54
2023-03-28T22:16:37.726Z,63.49
2023-03-28T22:19:08.879Z,64.06
2023-03-28T22:21:37.724Z,64.54
2023-03-28T22:24:10.511Z,64.93
2023-03-28T22:26:40.782Z,64.76
2023-03-28T22:29:08.966Z,65.38
2023-03-28T22:31:37.209Z,64.99
2023-03-28T22:34:05.322Z,64.24
2023-03-28T22:36:33.350Z,63.75
2023-03-28T22:39:01.515Z,63.77
2023-03-28T22:41:32.484Z,63.00
2023-03-28T22:44:00.768Z,63.14
2023-03-28T22:46:29.112Z,62.50
2023-03-28T22:48:58.728Z,62.88
2023-03-28T22:51:28.289Z,62.93
2023-03-28T22:54:00.554Z,62.83
2023-03-28T22:56:28.858Z,62.97
2023-03-28T22:59:01.522Z,63.26
2023-03-28T23:01:29.742Z,62.75
2023-03-28T23:03:57.621Z,62.70
2023-03-28T23:06:25.703Z,62.68
2023-03-28T23:08:53.738Z,62.08
2023-03-28T23:11:21.784Z,61.89
2023-03-28T23:13:49.725Z,61.83
2023-03-28T23:16:18.453Z,61.59
2023-03-28T23:18:46.461Z,62.65
2023-03-28T23:21:14.773Z,62.09
2023-03-28T23:23:43.270Z,61.98
2023-03-28T23:26:11.347Z,62.40
2023-03-28T23:28:39.503Z,62.27
2023-03-28T23:31:07.775Z,62.39
2023-03-28T23:33:36.176Z,62.26
2023-03-28T23:36:05.388Z,62.52
2023-03-28T23:38:33.474Z,61.95
2023-03-28T23:41:01.652Z,62.76
2023-03-28T23:43:29.922Z,62.68
2023-03-28T23:45:57.973Z,63.10
2023-03-28T23:48:27.604Z,62.48
2023-03-28T23:50:55.651Z,62.83
2023-03-28T23:53:23.860Z,63.23
2023-03-28T23:55:51.942Z,63.55
2023-03-28T23:58:19.833Z,63.68
